Time;durP1;ratioP1;P1;durP2;ratioP2;P2;SDS_P1;SDS_P2;PMS_P1;PMS_P2;Temp;Humidity;BMP_temperature;BMP_pressure;BME280_temperature;BME280_humidity;BME280_pressure;Samples;Min_cycle;Max_cycle;Signal;HPM_P1;HPM_P2
2023/10/04 00:00:20;0.00;0.00;0.62;0.00;0.00;0.62;2.57;1.40;;;26.80;30.30;;;;;;2260473;61;20393;-66
2023/10/04 00:03:07;0.00;0.00;0.62;0.00;0.00;0.62;3.47;1.60;;;26.80;30.20;;;;;;2260473;61;20376;-66
2023/10/04 00:05:52;0.00;0.00;0.62;0.00;0.00;0.62;2.73;1.43;;;26.80;30.20;;;;;;2260573;61;20445;-65
2023/10/04 00:08:37;0.00;0.00;0.62;0.00;0.00;0.62;3.00;1.70;;;26.80;30.20;;;;;;2259971;61;20372;-65
2023/10/04 00:11:24;0.00;0.00;0.62;0.00;0.00;0.62;3.50;1.53;;;26.80;30.20;;;;;;2260717;61;20393;-67
2023/10/04 00:14:08;0.00;0.00;0.62;0.00;0.00;0.62;3.27;1.70;;;26.80;30.20;;;;;;2260640;61;20397;-66
2023/10/04 00:16:59;0.00;0.00;0.62;0.00;0.00;0.62;2.87;1.90;;;26.80;30.20;;;;;;2260150;61;20369;-66
2023/10/04 00:19:44;0.00;0.00;0.62;0.00;0.00;0.62;3.10;1.70;;;26.80;30.20;;;;;;2260304;61;20773;-67
2023/10/04 00:22:29;0.00;0.00;0.62;0.00;0.00;0.62;2.20;1.30;;;26.80;30.20;;;;;;2260729;61;20369;-66
2023/10/04 00:25:20;0.00;0.00;0.62;0.00;0.00;0.62;3.13;1.83;;;26.70;30.10;;;;;;2260387;61;20388;-67
2023/10/04 00:28:06;0.00;0.00;0.62;0.00;0.00;0.62;4.37;1.77;;;26.80;30.90;;;;;;2260281;61;20792;-64
2023/10/04 00:30:50;0.00;0.00;0.62;0.00;0.00;0.62;3.10;1.70;;;26.70;30.10;;;;;;2260303;61;20432;-65
2023/10/04 00:33:35;0.00;0.00;0.62;0.00;0.00;0.62;2.63;1.80;;;26.70;30.10;;;;;;2257417;61;20876;-65
2023/10/04 00:36:21;0.00;0.00;0.62;0.00;0.00;0.62;4.30;1.87;;;26.80;30.20;;;;;;2260827;61;20401;-64
2023/10/04 00:39:07;0.00;0.00;0.62;0.00;0.00;0.62;2.40;1.53;;;26.70;30.00;;;;;;2258171;61;20417;-64
2023/10/04 00:41:55;0.00;0.00;0.62;0.00;0.00;0.62;3.93;1.87;;;26.70;30.00;;;;;;2256527;61;20382;-67
2023/10/04 00:44:40;0.00;0.00;0.62;0.00;0.00;0.62;3.47;1.50;;;26.70;30.00;;;;;;2256414;61;20902;-66
2023/10/04 00:47:25;0.00;0.00;0.62;0.00;0.00;0.62;2.13;1.47;;;26.70;30.00;;;;;;2255930;61;20413;-67
2023/10/04 00:50:17;0.00;0.00;0.62;0.00;0.00;0.62;3.80;1.90;;;26.70;30.00;;;;;;2255991;61;20679;-66
2023/10/04 00:53:05;0.00;0.00;0.62;0.00;0.00;0.62;2.70;1.83;;;26.70;30.00;;;;;;2258390;61;20516;-67
2023/10/04 00:55:54;0.00;0.00;0.62;0.00;0.00;0.62;2.77;1.90;;;26.70;30.00;;;;;;2260425;61;20373;-66
2023/10/04 00:58:41;0.00;0.00;0.62;0.00;0.00;0.62;2.90;1.40;;;26.70;30.00;;;;;;2260229;61;20393;-66
2023/10/04 01:01:26;0.00;0.00;0.62;0.00;0.00;0.62;2.43;1.50;;;26.70;30.00;;;;;;2260362;61;20924;-65
2023/10/04 01:04:11;0.00;0.00;0.62;0.00;0.00;0.62;3.20;1.60;;;26.70;30.00;;;;;;2260073;61;20361;-66
2023/10/04 01:06:55;0.00;0.00;0.62;0.00;0.00;0.62;2.50;1.43;;;26.60;30.00;;;;;;2260144;61;20938;-67
2023/10/04 01:09:42;0.00;0.00;0.62;0.00;0.00;0.62;2.70;1.60;;;26.70;30.00;;;;;;2260022;61;20818;-65
2023/10/04 01:12:27;0.00;0.00;0.62;0.00;0.00;0.62;2.90;1.50;;;26.60;30.00;;;;;;2257091;61;20435;-65
2023/10/04 01:18:15;0.00;0.00;0.62;0.00;0.00;0.62;3.07;1.60;;;26.60;30.00;;;;;;2257118;61;20431;-67
2023/10/04 01:21:00;0.00;0.00;0.62;0.00;0.00;0.62;1.97;1.40;;;26.60;30.00;;;;;;2257321;61;20952;-69
2023/10/04 01:23:46;0.00;0.00;0.62;0.00;0.00;0.62;3.10;1.70;;;26.60;30.00;;;;;;2260388;61;20365;-67
2023/10/04 01:26:31;0.00;0.00;0.62;0.00;0.00;0.62;2.20;1.50;;;26.60;30.00;;;;;;2260389;61;20404;-67
2023/10/04 01:29:18;0.00;0.00;0.62;0.00;0.00;0.62;2.93;1.63;;;26.60;30.00;;;;;;2260062;61;20860;-67
2023/10/04 01:32:05;0.00;0.00;0.62;0.00;0.00;0.62;2.20;1.57;;;26.60;30.00;;;;;;2259958;61;20796;-66
2023/10/04 01:34:49;0.00;0.00;0.62;0.00;0.00;0.62;3.27;1.97;;;26.60;30.00;;;;;;2259420;61;20781;-68
2023/10/04 01:37:38;0.00;0.00;0.62;0.00;0.00;0.62;2.70;1.70;;;26.60;30.00;;;;;;2254972;61;20372;-66
2023/10/04 01:40:31;0.00;0.00;0.62;0.00;0.00;0.62;1.87;1.40;;;26.60;29.90;;;;;;2260847;61;20416;-65
2023/10/04 01:43:15;0.00;0.00;0.62;0.00;0.00;0.62;2.20;1.53;;;26.60;29.90;;;;;;2262799;61;20401;-66
2023/10/04 01:46:00;0.00;0.00;0.62;0.00;0.00;0.62;2.40;1.47;;;26.60;29.90;;;;;;2260210;61;20369;-69
2023/10/04 01:48:47;0.00;0.00;0.62;0.00;0.00;0.62;2.10;1.30;;;26.60;29.90;;;;;;2259908;61;20369;-67
2023/10/04 01:51:32;0.00;0.00;0.62;0.00;0.00;0.62;2.67;1.67;;;26.60;29.90;;;;;;2260166;61;20384;-65
2023/10/04 01:54:17;0.00;0.00;0.62;0.00;0.00;0.62;2.50;1.83;;;26.50;29.80;;;;;;2260159;61;20468;-72
2023/10/04 01:57:05;0.00;0.00;0.62;0.00;0.00;0.62;2.37;1.37;;;26.50;29.80;;;;;;2257126;61;20380;-69
2023/10/04 01:59:49;0.00;0.00;0.62;0.00;0.00;0.62;3.17;1.80;;;26.50;29.80;;;;;;2260546;61;20365;-66
2023/10/04 02:02:34;0.00;0.00;0.62;0.00;0.00;0.62;2.70;1.73;;;26.50;29.80;;;;;;2261030;61;20361;-66
2023/10/04 02:05:31;0.00;0.00;0.62;0.00;0.00;0.62;2.60;1.47;;;26.50;29.80;;;;;;2257965;61;20439;-66
2023/10/04 02:08:17;0.00;0.00;0.62;0.00;0.00;0.62;3.60;1.80;;;26.50;29.80;;;;;;2260314;61;20369;-66
2023/10/04 02:11:04;0.00;0.00;0.62;0.00;0.00;0.62;2.53;1.63;;;26.50;29.80;;;;;;2261169;61;20403;-66
2023/10/04 02:13:52;0.00;0.00;0.62;0.00;0.00;0.62;2.17;1.37;;;26.50;29.80;;;;;;2257993;61;20762;-66
2023/10/04 02:16:37;0.00;0.00;0.62;0.00;0.00;0.62;2.73;1.67;;;26.50;29.80;;;;;;2261254;61;20376;-65
2023/10/04 02:19:24;0.00;0.00;0.62;0.00;0.00;0.62;2.67;1.80;;;26.50;29.80;;;;;;2260608;61;20881;-65
2023/10/04 02:22:09;0.00;0.00;0.62;0.00;0.00;0.62;3.20;2.00;;;26.50;29.80;;;;;;2260570;61;20380;-67
2023/10/04 02:24:55;0.00;0.00;0.62;0.00;0.00;0.62;2.50;1.70;;;26.50;29.80;;;;;;2260762;61;20392;-66
2023/10/04 02:27:41;0.00;0.00;0.62;0.00;0.00;0.62;2.70;1.80;;;26.50;29.80;;;;;;2261011;61;20834;-68
2023/10/04 02:30:26;0.00;0.00;0.62;0.00;0.00;0.62;5.10;1.47;;;26.50;29.80;;;;;;2260241;61;20385;-73
2023/10/04 02:33:13;0.00;0.00;0.62;0.00;0.00;0.62;3.60;2.13;;;26.50;29.80;;;;;;2257589;61;20531;-68
2023/10/04 02:36:00;0.00;0.00;0.62;0.00;0.00;0.62;2.90;1.70;;;26.50;29.80;;;;;;2257635;61;20404;-66
2023/10/04 02:38:46;0.00;0.00;0.62;0.00;0.00;0.62;3.20;1.77;;;26.50;29.80;;;;;;2261652;61;20515;-67
2023/10/04 02:41:31;0.00;0.00;0.62;0.00;0.00;0.62;2.80;1.53;;;26.50;29.80;;;;;;2261923;61;20830;-65
2023/10/04 02:44:17;0.00;0.00;0.62;0.00;0.00;0.62;2.90;1.90;;;26.50;29.80;;;;;;2261568;61;20372;-67
2023/10/04 02:47:06;0.00;0.00;0.62;0.00;0.00;0.62;2.23;1.43;;;26.50;29.80;;;;;;2261752;61;20363;-66
2023/10/04 02:49:50;0.00;0.00;0.62;0.00;0.00;0.62;2.77;1.60;;;26.50;29.80;;;;;;2261650;61;20760;-65
2023/10/04 02:52:35;0.00;0.00;0.62;0.00;0.00;0.62;3.00;1.63;;;26.50;29.80;;;;;;2264560;61;20395;-67
2023/10/04 02:55:20;0.00;0.00;0.62;0.00;0.00;0.62;2.70;1.73;;;26.50;29.80;;;;;;2261873;61;20374;-65
2023/10/04 02:58:07;0.00;0.00;0.62;0.00;0.00;0.62;2.83;1.50;;;26.40;29.70;;;;;;2261309;61;20384;-68
2023/10/04 03:00:53;0.00;0.00;0.62;0.00;0.00;0.62;2.57;1.93;;;26.40;29.80;;;;;;2261525;61;20826;-67
2023/10/04 03:03:42;0.00;0.00;0.62;0.00;0.00;0.62;4.10;1.70;;;26.40;30.30;;;;;;2261655;61;20364;-66
2023/10/04 03:06:28;0.00;0.00;0.62;0.00;0.00;0.62;3.03;1.60;;;26.40;29.70;;;;;;2261652;61;20514;-66
2023/10/04 03:09:15;0.00;0.00;0.62;0.00;0.00;0.62;2.73;1.57;;;26.40;29.80;;;;;;2261269;61;20364;-66
2023/10/04 03:12:00;0.00;0.00;0.62;0.00;0.00;0.62;3.33;2.20;;;26.40;29.70;;;;;;2261660;61;20490;-68
2023/10/04 03:14:45;0.00;0.00;0.62;0.00;0.00;0.62;3.13;1.67;;;26.40;29.70;;;;;;2264574;61;20453;-66
2023/10/04 03:17:31;0.00;0.00;0.62;0.00;0.00;0.62;3.80;1.87;;;26.40;29.80;;;;;;2261670;61;20372;-67
2023/10/04 03:20:21;0.00;0.00;0.62;0.00;0.00;0.62;2.53;1.40;;;26.40;29.70;;;;;;2264695;61;20368;-65
2023/10/04 03:23:11;0.00;0.00;0.62;0.00;0.00;0.62;4.33;1.93;;;26.40;29.70;;;;;;2261659;61;20516;-65
2023/10/04 03:25:57;0.00;0.00;0.62;0.00;0.00;0.62;2.57;1.80;;;26.40;29.70;;;;;;2261660;61;20363;-67
2023/10/04 03:28:44;0.00;0.00;0.62;0.00;0.00;0.62;3.10;1.37;;;26.40;29.70;;;;;;2261206;61;20368;-65
2023/10/04 03:31:29;0.00;0.00;0.62;0.00;0.00;0.62;2.60;1.80;;;26.40;29.70;;;;;;2261465;61;20448;-65
2023/10/04 03:34:16;0.00;0.00;0.62;0.00;0.00;0.62;2.60;1.40;;;26.40;29.70;;;;;;2261629;61;20372;-67
2023/10/04 03:37:09;0.00;0.00;0.62;0.00;0.00;0.62;3.00;1.70;;;26.40;29.70;;;;;;2260997;61;20476;-65
2023/10/04 03:39:54;0.00;0.00;0.62;0.00;0.00;0.62;2.20;1.40;;;26.40;29.70;;;;;;2258627;61;20377;-69
2023/10/04 03:42:39;0.00;0.00;0.62;0.00;0.00;0.62;3.70;1.73;;;26.40;29.70;;;;;;2260153;61;20360;-68
2023/10/04 03:45:26;0.00;0.00;0.62;0.00;0.00;0.62;3.20;1.50;;;26.40;29.70;;;;;;2256918;61;20917;-66
2023/10/04 03:48:15;0.00;0.00;0.62;0.00;0.00;0.62;2.27;1.40;;;26.30;29.70;;;;;;2259877;61;20365;-66
2023/10/04 03:51:03;0.00;0.00;0.62;0.00;0.00;0.62;5.70;2.40;;;26.40;29.70;;;;;;2260195;61;20988;-66
2023/10/04 03:53:51;0.00;0.00;0.62;0.00;0.00;0.62;2.60;1.50;;;26.40;29.70;;;;;;2260311;61;20385;-66
2023/10/04 03:56:36;0.00;0.00;0.62;0.00;0.00;0.62;3.07;1.73;;;26.40;29.70;;;;;;2260214;61;20381;-67
2023/10/04 03:59:22;0.00;0.00;0.62;0.00;0.00;0.62;3.10;1.83;;;26.40;29.70;;;;;;2256845;61;20416;-66
2023/10/04 04:02:09;0.00;0.00;0.62;0.00;0.00;0.62;3.80;2.03;;;26.40;29.70;;;;;;2260620;61;20377;-65
2023/10/04 04:04:53;0.00;0.00;0.62;0.00;0.00;0.62;2.90;1.77;;;26.40;29.70;;;;;;2260840;61;20863;-64
2023/10/04 04:07:38;0.00;0.00;0.62;0.00;0.00;0.62;3.20;1.77;;;26.30;29.70;;;;;;2260656;61;20400;-66
2023/10/04 04:10:24;0.00;0.00;0.62;0.00;0.00;0.62;2.10;1.43;;;26.30;29.70;;;;;;2259995;61;20384;-67
2023/10/04 04:13:12;0.00;0.00;0.62;0.00;0.00;0.62;4.80;1.43;;;26.30;29.70;;;;;;2259866;61;20408;-66
2023/10/04 04:15:58;0.00;0.00;0.62;0.00;0.00;0.62;2.67;1.67;;;26.30;29.70;;;;;;2260256;61;20769;-67
2023/10/04 04:18:47;0.00;0.00;0.62;0.00;0.00;0.62;4.00;2.17;;;26.30;29.70;;;;;;2259797;61;20369;-66
2023/10/04 04:21:33;0.00;0.00;0.62;0.00;0.00;0.62;2.50;1.70;;;26.30;29.70;;;;;;2259866;61;20960;-64
2023/10/04 04:24:19;0.00;0.00;0.62;0.00;0.00;0.62;2.93;1.83;;;26.30;29.70;;;;;;2260128;61;20385;-65
2023/10/04 04:27:07;0.00;0.00;0.62;0.00;0.00;0.62;3.50;1.70;;;26.30;29.70;;;;;;2260272;61;20908;-66
2023/10/04 04:29:56;0.00;0.00;0.62;0.00;0.00;0.62;3.97;2.20;;;26.30;29.70;;;;;;2259802;61;20361;-66
2023/10/04 04:32:41;0.00;0.00;0.62;0.00;0.00;0.62;3.53;1.80;;;26.30;29.70;;;;;;2257224;61;20392;-66
2023/10/04 04:38:17;0.00;0.00;0.62;0.00;0.00;0.62;3.23;2.43;;;26.30;29.70;;;;;;2262904;61;20920;-67
2023/10/04 04:41:05;0.00;0.00;0.62;0.00;0.00;0.62;4.37;2.60;;;26.30;29.70;;;;;;2261467;61;20411;-66
2023/10/04 04:43:53;0.00;0.00;0.62;0.00;0.00;0.62;3.57;2.23;;;26.30;29.60;;;;;;2261329;61;20440;-65
2023/10/04 04:46:38;0.00;0.00;0.62;0.00;0.00;0.62;3.53;2.37;;;26.30;29.70;;;;;;2264985;61;20780;-66
2023/10/04 04:49:24;0.00;0.00;0.62;0.00;0.00;0.62;2.97;2.47;;;26.30;29.60;;;;;;2261041;61;20372;-65
2023/10/04 04:52:09;0.00;0.00;0.62;0.00;0.00;0.62;4.90;2.50;;;26.30;29.60;;;;;;2261356;61;20925;-65
2023/10/04 04:54:55;0.00;0.00;0.62;0.00;0.00;0.62;5.07;2.83;;;26.30;29.70;;;;;;2260784;61;20393;-66
2023/10/04 04:57:40;0.00;0.00;0.62;0.00;0.00;0.62;3.07;2.43;;;26.30;29.60;;;;;;2258847;61;20428;-65
2023/10/04 05:00:33;0.00;0.00;0.62;0.00;0.00;0.62;3.47;2.60;;;26.30;29.60;;;;;;2260562;61;20412;-66
2023/10/04 05:03:19;0.00;0.00;0.62;0.00;0.00;0.62;5.00;3.00;;;26.30;29.60;;;;;;2257302;61;20362;-66
2023/10/04 05:06:05;0.00;0.00;0.62;0.00;0.00;0.62;6.83;2.50;;;26.30;29.60;;;;;;2260345;61;20384;-64
2023/10/04 05:08:50;0.00;0.00;0.62;0.00;0.00;0.62;4.63;2.70;;;26.30;29.60;;;;;;2260251;61;20428;-65
2023/10/04 05:11:36;0.00;0.00;0.62;0.00;0.00;0.62;4.53;2.87;;;26.30;29.70;;;;;;2260164;61;20432;-66
2023/10/04 05:14:22;0.00;0.00;0.62;0.00;0.00;0.62;3.77;2.27;;;26.30;29.60;;;;;;2260457;61;20361;-66
2023/10/04 05:17:07;0.00;0.00;0.62;0.00;0.00;0.62;3.87;2.70;;;26.30;29.60;;;;;;2260473;61;20377;-65
2023/10/04 05:19:52;0.00;0.00;0.62;0.00;0.00;0.62;4.80;2.70;;;26.30;29.60;;;;;;2260140;61;20392;-66
2023/10/04 05:22:37;0.00;0.00;0.62;0.00;0.00;0.62;4.67;2.40;;;26.30;29.60;;;;;;2260356;61;20400;-66
2023/10/04 05:25:22;0.00;0.00;0.62;0.00;0.00;0.62;3.93;2.30;;;26.30;29.60;;;;;;2260570;61;20886;-65
2023/10/04 05:28:11;0.00;0.00;0.62;0.00;0.00;0.62;3.93;2.70;;;26.30;29.60;;;;;;2259903;61;20427;-67
2023/10/04 05:30:57;0.00;0.00;0.62;0.00;0.00;0.62;3.80;2.53;;;26.30;29.60;;;;;;2260251;61;20440;-66
2023/10/04 05:33:43;0.00;0.00;0.62;0.00;0.00;0.62;3.63;2.33;;;26.30;29.60;;;;;;2260214;61;20477;-67
2023/10/04 05:36:28;0.00;0.00;0.62;0.00;0.00;0.62;3.53;2.40;;;26.30;29.60;;;;;;2260049;61;20419;-66
2023/10/04 05:39:14;0.00;0.00;0.62;0.00;0.00;0.62;4.43;2.10;;;26.30;29.60;;;;;;2260008;61;20408;-66
2023/10/04 05:41:59;0.00;0.00;0.62;0.00;0.00;0.62;3.50;2.10;;;26.30;29.60;;;;;;2257046;61;20380;-66
2023/10/04 05:44:44;0.00;0.00;0.62;0.00;0.00;0.62;3.50;2.40;;;26.30;29.60;;;;;;2260443;61;20369;-66
2023/10/04 05:47:30;0.00;0.00;0.62;0.00;0.00;0.62;5.33;3.10;;;26.30;29.60;;;;;;2260278;61;20369;-66
2023/10/04 05:50:18;0.00;0.00;0.62;0.00;0.00;0.62;3.37;2.53;;;26.20;29.60;;;;;;2286333;40;20380;-67
2023/10/04 05:53:07;0.00;0.00;0.62;0.00;0.00;0.62;4.43;2.87;;;26.30;29.60;;;;;;2257883;61;20516;-69
2023/10/04 05:55:51;0.00;0.00;0.62;0.00;0.00;0.62;4.57;2.47;;;26.30;29.60;;;;;;2256246;61;20476;-66
2023/10/04 05:58:36;0.00;0.00;0.62;0.00;0.00;0.62;3.93;3.13;;;26.20;29.60;;;;;;2255791;61;20369;-66
2023/10/04 06:01:22;0.00;0.00;0.62;0.00;0.00;0.62;4.77;3.07;;;26.20;29.50;;;;;;2258792;61;20389;-67
2023/10/04 06:04:07;0.00;0.00;0.62;0.00;0.00;0.62;4.50;3.17;;;26.30;29.60;;;;;;2260326;61;20399;-66
2023/10/04 06:06:51;0.00;0.00;0.62;0.00;0.00;0.62;3.50;2.70;;;26.30;29.60;;;;;;2260216;61;20890;-67
2023/10/04 06:09:42;0.00;0.00;0.62;0.00;0.00;0.62;4.30;2.63;;;26.20;29.60;;;;;;2260031;61;20392;-67
2023/10/04 06:12:26;0.00;0.00;0.62;0.00;0.00;0.62;4.50;2.97;;;26.20;29.60;;;;;;2259983;61;20460;-67
2023/10/04 06:15:13;0.00;0.00;0.62;0.00;0.00;0.62;5.60;3.17;;;26.20;29.50;;;;;;2260433;61;20865;-65
2023/10/04 06:17:59;0.00;0.00;0.62;0.00;0.00;0.62;4.70;2.80;;;26.20;29.60;;;;;;2259932;61;20361;-66
2023/10/04 06:20:45;0.00;0.00;0.62;0.00;0.00;0.62;3.30;2.30;;;26.20;29.60;;;;;;2260120;61;20469;-65
2023/10/04 06:23:32;0.00;0.00;0.62;0.00;0.00;0.62;3.67;3.07;;;26.20;29.60;;;;;;2260178;61;20835;-66
2023/10/04 06:26:18;0.00;0.00;0.62;0.00;0.00;0.62;4.27;2.90;;;26.20;29.50;;;;;;2260235;61;20369;-66
2023/10/04 06:29:03;0.00;0.00;0.62;0.00;0.00;0.62;4.10;2.60;;;26.20;29.60;;;;;;2259666;61;20361;-66
2023/10/04 06:31:48;0.00;0.00;0.62;0.00;0.00;0.62;4.43;3.00;;;26.20;29.60;;;;;;2260151;61;20388;-66
2023/10/04 06:34:32;0.00;0.00;0.62;0.00;0.00;0.62;3.90;2.90;;;26.20;29.50;;;;;;2260167;61;20510;-66
2023/10/04 06:37:17;0.00;0.00;0.62;0.00;0.00;0.62;4.00;3.17;;;26.20;29.50;;;;;;2260205;61;20387;-66
2023/10/04 06:40:01;0.00;0.00;0.62;0.00;0.00;0.62;3.27;2.73;;;26.20;29.50;;;;;;2256497;61;20393;-66
2023/10/04 06:42:49;0.00;0.00;0.62;0.00;0.00;0.62;4.33;2.70;;;26.20;29.60;;;;;;2256375;61;20358;-66
2023/10/04 06:45:36;0.00;0.00;0.62;0.00;0.00;0.62;3.17;2.30;;;26.20;29.60;;;;;;2256546;61;20369;-71
2023/10/04 06:48:20;0.00;0.00;0.62;0.00;0.00;0.62;3.50;2.30;;;26.20;29.50;;;;;;2256483;61;20376;-65
2023/10/04 06:51:05;0.00;0.00;0.62;0.00;0.00;0.62;3.60;2.30;;;26.20;29.50;;;;;;2256817;61;20744;-67
2023/10/04 06:53:49;0.00;0.00;0.62;0.00;0.00;0.62;4.53;2.17;;;26.20;29.50;;;;;;2256563;61;20910;-65
2023/10/04 06:56:34;0.00;0.00;0.62;0.00;0.00;0.62;3.77;2.00;;;26.20;29.50;;;;;;2256732;61;20945;-66
2023/10/04 06:59:20;0.00;0.00;0.62;0.00;0.00;0.62;2.90;2.23;;;26.20;29.50;;;;;;2256538;61;20492;-67
2023/10/04 07:02:05;0.00;0.00;0.62;0.00;0.00;0.62;3.13;2.13;;;26.20;29.50;;;;;;2258903;61;20381;-66
2023/10/04 07:04:50;0.00;0.00;0.62;0.00;0.00;0.62;5.47;2.03;;;26.20;29.50;;;;;;2256890;61;20454;-65
2023/10/04 07:07:36;0.00;0.00;0.62;0.00;0.00;0.62;4.03;2.20;;;26.20;29.50;;;;;;2256809;61;20409;-65
2023/10/04 07:10:22;0.00;0.00;0.62;0.00;0.00;0.62;5.13;2.30;;;26.20;29.60;;;;;;2256489;61;20369;-66
2023/10/04 07:13:07;0.00;0.00;0.62;0.00;0.00;0.62;4.13;2.50;;;26.20;29.60;;;;;;2256735;61;20469;-63
2023/10/04 07:15:53;0.00;0.00;0.62;0.00;0.00;0.62;3.03;2.00;;;26.20;29.50;;;;;;2256908;61;20886;-64
2023/10/04 07:18:38;0.00;0.00;0.62;0.00;0.00;0.62;3.53;2.20;;;26.20;29.60;;;;;;2256258;61;20373;-67
2023/10/04 07:21:23;0.00;0.00;0.62;0.00;0.00;0.62;2.67;2.00;;;26.20;29.60;;;;;;2256746;61;20388;-64
2023/10/04 07:24:08;0.00;0.00;0.62;0.00;0.00;0.62;2.63;1.77;;;26.20;29.60;;;;;;2256866;61;20358;-66
2023/10/04 07:26:55;0.00;0.00;0.62;0.00;0.00;0.62;3.70;2.00;;;26.20;29.60;;;;;;2256703;61;20369;-62
2023/10/04 07:29:40;0.00;0.00;0.62;0.00;0.00;0.62;3.43;2.10;;;26.20;29.60;;;;;;2256334;61;20413;-66
2023/10/04 07:32:26;0.00;0.00;0.62;0.00;0.00;0.62;3.73;2.10;;;26.20;29.60;;;;;;2256639;61;20394;-69
2023/10/04 07:35:27;0.00;0.00;0.62;0.00;0.00;0.62;4.07;2.23;;;26.20;29.60;;;;;;2256988;61;20399;-65
2023/10/04 07:38:12;0.00;0.00;0.62;0.00;0.00;0.62;2.93;1.60;;;26.20;29.60;;;;;;2259975;61;20454;-65
2023/10/04 07:40:57;0.00;0.00;0.62;0.00;0.00;0.62;5.20;2.30;;;26.20;29.70;;;;;;2256514;61;20981;-65
2023/10/04 07:43:41;0.00;0.00;0.62;0.00;0.00;0.62;2.77;1.50;;;26.20;29.70;;;;;;2256868;61;20361;-63
2023/10/04 07:46:27;0.00;0.00;0.62;0.00;0.00;0.62;2.23;1.90;;;26.20;29.70;;;;;;2256655;61;20772;-67
2023/10/04 07:49:13;0.00;0.00;0.62;0.00;0.00;0.62;3.17;1.90;;;26.20;29.70;;;;;;2256290;61;20890;-65
2023/10/04 07:51:58;0.00;0.00;0.62;0.00;0.00;0.62;3.20;1.80;;;26.20;29.70;;;;;;2253210;61;20401;-66
2023/10/04 07:54:43;0.00;0.00;0.62;0.00;0.00;0.62;3.13;1.80;;;26.20;29.70;;;;;;2256713;61;20399;-64
2023/10/04 07:57:28;0.00;0.00;0.62;0.00;0.00;0.62;3.00;2.03;;;26.20;29.70;;;;;;2256300;61;20416;-66
2023/10/04 08:00:14;0.00;0.00;0.62;0.00;0.00;0.62;3.60;2.17;;;26.20;29.80;;;;;;2256700;61;20366;-66
2023/10/04 08:02:59;0.00;0.00;0.62;0.00;0.00;0.62;3.70;1.83;;;26.20;29.80;;;;;;2256572;61;20455;-66
2023/10/04 08:05:45;0.00;0.00;0.62;0.00;0.00;0.62;4.30;2.20;;;26.20;29.80;;;;;;2256541;61;20378;-65
2023/10/04 08:08:29;0.00;0.00;0.62;0.00;0.00;0.62;3.63;1.90;;;26.20;29.80;;;;;;2256369;61;20362;-66
2023/10/04 08:11:14;0.00;0.00;0.62;0.00;0.00;0.62;3.70;2.17;;;26.20;29.80;;;;;;2256512;61;20799;-66
2023/10/04 08:13:59;0.00;0.00;0.62;0.00;0.00;0.62;2.97;1.90;;;26.20;29.80;;;;;;2256658;61;20384;-66
2023/10/04 08:16:44;0.00;0.00;0.62;0.00;0.00;0.62;3.53;2.13;;;26.20;29.80;;;;;;2256756;61;20400;-66
2023/10/04 08:19:28;0.00;0.00;0.62;0.00;0.00;0.62;3.07;1.93;;;26.20;29.90;;;;;;2256300;61;20409;-66
2023/10/04 08:22:16;0.00;0.00;0.62;0.00;0.00;0.62;3.50;1.77;;;26.20;29.80;;;;;;2256566;61;20387;-66
2023/10/04 08:25:00;0.00;0.00;0.62;0.00;0.00;0.62;3.77;2.03;;;26.20;29.90;;;;;;2256481;61;20365;-66
2023/10/04 08:27:46;0.00;0.00;0.62;0.00;0.00;0.62;4.67;2.33;;;26.20;29.90;;;;;;2256478;61;20397;-65
2023/10/04 08:30:31;0.00;0.00;0.62;0.00;0.00;0.62;3.03;1.90;;;26.20;29.90;;;;;;2256641;61;20797;-65
2023/10/04 08:33:18;0.00;0.00;0.62;0.00;0.00;0.62;3.53;2.10;;;26.20;29.90;;;;;;2256481;61;20385;-65
2023/10/04 08:36:08;0.00;0.00;0.62;0.00;0.00;0.62;2.80;1.80;;;26.20;29.90;;;;;;2256578;61;20354;-65
2023/10/04 08:38:55;0.00;0.00;0.62;0.00;0.00;0.62;3.83;1.87;;;26.20;29.90;;;;;;2257792;61;20450;-65
2023/10/04 08:41:40;0.00;0.00;0.62;0.00;0.00;0.62;3.40;1.93;;;26.20;29.90;;;;;;2260596;61;20521;-65
2023/10/04 08:44:25;0.00;0.00;0.62;0.00;0.00;0.62;3.73;2.47;;;26.20;29.90;;;;;;2260616;61;20416;-64
2023/10/04 08:47:10;0.00;0.00;0.62;0.00;0.00;0.62;3.17;1.90;;;26.20;30.00;;;;;;2260663;61;20389;-65
2023/10/04 08:49:55;0.00;0.00;0.62;0.00;0.00;0.62;2.67;1.87;;;26.30;30.00;;;;;;2260250;61;20927;-66
2023/10/04 08:52:45;0.00;0.00;0.62;0.00;0.00;0.62;3.87;2.30;;;26.30;30.00;;;;;;2260381;61;20808;-66
2023/10/04 08:55:39;0.00;0.00;0.62;0.00;0.00;0.62;5.03;2.50;;;26.30;30.00;;;;;;2260595;61;20670;-66
2023/10/04 08:58:24;0.00;0.00;0.62;0.00;0.00;0.62;3.20;1.70;;;26.30;30.00;;;;;;2260130;61;20440;-65
2023/10/04 09:01:13;0.00;0.00;0.62;0.00;0.00;0.62;5.27;1.83;;;26.30;30.00;;;;;;2260463;61;20866;-65
2023/10/04 09:04:00;0.00;0.00;0.62;0.00;0.00;0.62;6.67;2.40;;;26.30;30.00;;;;;;2260519;61;20463;-65
2023/10/04 09:06:45;0.00;0.00;0.62;0.00;0.00;0.62;3.40;2.10;;;26.30;30.00;;;;;;2260555;61;20365;-65
2023/10/04 09:09:32;0.00;0.00;0.62;0.00;0.00;0.62;3.23;1.87;;;26.30;30.00;;;;;;2259966;61;20384;-64
2023/10/04 09:12:19;0.00;0.00;0.62;0.00;0.00;0.62;3.10;2.13;;;26.30;30.00;;;;;;2258499;61;20926;-66
2023/10/04 09:15:07;0.00;0.00;0.62;0.00;0.00;0.62;3.90;1.90;;;26.30;30.00;;;;;;2256565;61;20393;-66
2023/10/04 09:17:58;0.00;0.00;0.62;0.00;0.00;0.62;4.50;2.00;;;26.30;30.00;;;;;;2256073;61;20370;-65
2023/10/04 09:20:42;0.00;0.00;0.62;0.00;0.00;0.62;3.10;1.93;;;26.30;30.00;;;;;;2256496;61;20441;-65
2023/10/04 09:23:28;0.00;0.00;0.62;0.00;0.00;0.62;3.37;2.20;;;26.30;30.00;;;;;;2256433;61;20445;-65
2023/10/04 09:26:16;0.00;0.00;0.62;0.00;0.00;0.62;4.27;2.17;;;26.30;30.00;;;;;;2256371;61;20890;-65
2023/10/04 09:29:04;0.00;0.00;0.62;0.00;0.00;0.62;3.80;2.07;;;26.30;30.00;;;;;;2256321;61;20374;-65
2023/10/04 09:31:53;0.00;0.00;0.62;0.00;0.00;0.62;3.87;1.80;;;26.40;30.10;;;;;;2256347;61;20385;-65
2023/10/04 09:34:38;0.00;0.00;0.62;0.00;0.00;0.62;5.20;1.80;;;26.40;30.10;;;;;;2256654;61;20362;-65
2023/10/04 09:37:23;0.00;0.00;0.62;0.00;0.00;0.62;3.37;2.23;;;26.40;30.10;;;;;;2256603;61;20454;-65
2023/10/04 09:40:12;0.00;0.00;0.62;0.00;0.00;0.62;3.60;2.03;;;26.40;30.10;;;;;;2259638;61;20368;-65
2023/10/04 09:42:56;0.00;0.00;0.62;0.00;0.00;0.62;3.43;1.90;;;26.40;30.10;;;;;;2260529;61;20360;-65
2023/10/04 09:46:09;0.00;0.00;0.62;0.00;0.00;0.62;3.47;2.53;;;26.40;30.10;;;;;;2260371;61;20780;-65
2023/10/04 09:48:54;0.00;0.00;0.62;0.00;0.00;0.62;3.70;2.13;;;26.40;30.10;;;;;;2260073;61;20381;-65
2023/10/04 09:51:38;0.00;0.00;0.62;0.00;0.00;0.62;4.67;2.20;;;26.40;30.10;;;;;;2262861;61;20408;-67
2023/10/04 09:54:24;0.00;0.00;0.62;0.00;0.00;0.62;3.03;1.93;;;26.40;30.10;;;;;;2259981;61;20446;-66
2023/10/04 09:57:12;0.00;0.00;0.62;0.00;0.00;0.62;2.70;1.90;;;26.40;30.10;;;;;;2263923;61;20408;-67
2023/10/04 09:59:57;0.00;0.00;0.62;0.00;0.00;0.62;2.90;1.80;;;26.50;30.20;;;;;;2264129;61;20355;-65
2023/10/04 10:02:49;0.00;0.00;0.62;0.00;0.00;0.62;3.40;1.83;;;26.40;30.10;;;;;;2264309;61;20367;-67
2023/10/04 10:05:36;0.00;0.00;0.62;0.00;0.00;0.62;2.53;1.63;;;26.50;30.20;;;;;;2264279;61;20390;-72
2023/10/04 10:08:21;0.00;0.00;0.62;0.00;0.00;0.62;3.70;2.07;;;26.40;30.10;;;;;;2264006;61;20383;-66
2023/10/04 10:11:07;0.00;0.00;0.62;0.00;0.00;0.62;3.23;1.60;;;26.50;30.20;;;;;;2264296;61;20881;-67
2023/10/04 10:13:54;0.00;0.00;0.62;0.00;0.00;0.62;3.20;2.00;;;26.50;30.20;;;;;;2264091;61;20861;-67
2023/10/04 10:16:41;0.00;0.00;0.62;0.00;0.00;0.62;3.10;1.90;;;26.50;30.20;;;;;;2264212;61;20780;-67
2023/10/04 10:19:28;0.00;0.00;0.62;0.00;0.00;0.62;2.77;2.10;;;26.50;30.20;;;;;;2263965;61;20455;-67
2023/10/04 10:22:16;0.00;0.00;0.62;0.00;0.00;0.62;3.23;2.27;;;26.50;30.20;;;;;;2261620;61;20849;-67
2023/10/04 10:25:14;0.00;0.00;0.62;0.00;0.00;0.62;3.53;2.00;;;26.50;30.30;;;;;;2264927;61;20698;-67
2023/10/04 10:28:02;0.00;0.00;0.62;0.00;0.00;0.62;4.20;2.33;;;26.50;30.30;;;;;;2264639;61;20360;-67
2023/10/04 10:30:47;0.00;0.00;0.62;0.00;0.00;0.62;4.53;2.00;;;26.60;30.30;;;;;;2264678;61;20931;-67
2023/10/04 10:33:32;0.00;0.00;0.62;0.00;0.00;0.62;2.20;1.80;;;26.60;30.30;;;;;;2265034;61;20530;-67
2023/10/04 10:36:23;0.00;0.00;0.62;0.00;0.00;0.62;2.53;1.93;;;26.60;30.40;;;;;;2265106;61;20915;-67
2023/10/04 10:39:20;0.00;0.00;0.62;0.00;0.00;0.62;2.40;1.83;;;26.60;30.30;;;;;;2260369;61;20385;-65
2023/10/04 10:42:04;0.00;0.00;0.62;0.00;0.00;0.62;3.00;1.97;;;26.60;30.30;;;;;;2259291;61;20429;-65
2023/10/04 10:45:05;0.00;0.00;0.62;0.00;0.00;0.62;2.73;1.80;;;26.60;30.30;;;;;;2257078;61;20408;-66
2023/10/04 10:47:53;0.00;0.00;0.62;0.00;0.00;0.62;4.50;2.47;;;26.60;30.30;;;;;;2256717;61;20394;-66
2023/10/04 10:50:41;0.00;0.00;0.62;0.00;0.00;0.62;3.83;2.13;;;26.60;30.30;;;;;;2256597;61;20495;-66
2023/10/04 10:53:27;0.00;0.00;0.62;0.00;0.00;0.62;3.60;2.50;;;26.70;30.40;;;;;;2256087;61;20789;-66
2023/10/04 10:56:14;0.00;0.00;0.62;0.00;0.00;0.62;3.90;2.23;;;26.70;30.40;;;;;;2256702;61;20693;-67
2023/10/04 10:58:58;0.00;0.00;0.62;0.00;0.00;0.62;3.07;1.90;;;26.70;30.40;;;;;;2256352;61;20932;-67
2023/10/04 11:01:43;0.00;0.00;0.62;0.00;0.00;0.62;3.50;2.23;;;26.70;30.40;;;;;;2256403;61;20389;-65